createdAt,value
2023-01-13T00:01:32.952Z,72.60
2023-01-13T00:04:35.417Z,78.55
2023-01-13T00:07:41.105Z,80.67
2023-01-13T00:10:48.204Z,67.28
2023-01-13T00:13:50.636Z,51.63
2023-01-13T00:16:53.068Z,55.03
2023-01-13T00:19:56.462Z,55.65
2023-01-13T00:23:00.114Z,64.23
2023-01-13T00:26:14.735Z,54.67
2023-01-13T00:29:17.068Z,48.38
2023-01-13T00:32:21.316Z,49.50
2023-01-13T00:35:23.705Z,49.03
2023-01-13T00:38:26.932Z,49.57
2023-01-13T00:41:49.221Z,56.65
2023-01-13T00:44:51.668Z,42.03
2023-01-13T00:47:54.047Z,59.38
2023-01-13T00:51:14.997Z,47.60
2023-01-13T00:54:17.459Z,52.50
2023-01-13T00:57:19.867Z,48.13
2023-01-13T01:00:22.496Z,54.40
2023-01-13T01:03:24.988Z,48.35
2023-01-13T01:06:28.062Z,42.63
2023-01-13T01:09:33.525Z,48.33
2023-01-13T01:12:35.950Z,50.97
2023-01-13T01:15:41.735Z,49.05
2023-01-13T01:18:45.977Z,50.65
2023-01-13T01:21:49.673Z,50.53
2023-01-13T01:24:51.981Z,48.20
2023-01-13T01:27:54.351Z,45.20
2023-01-13T01:30:58.452Z,50.85
2023-01-13T01:34:01.076Z,42.63
2023-01-13T01:37:03.509Z,52.22
2023-01-13T01:40:06.409Z,44.33
2023-01-13T01:43:34.705Z,48.75
2023-01-13T01:46:42.625Z,48.10
2023-01-13T01:49:46.129Z,46.95
2023-01-13T01:52:53.063Z,48.40
2023-01-13T01:55:56.200Z,50.17
2023-01-13T01:58:58.602Z,47.10
2023-01-13T02:02:01.145Z,41.67
2023-01-13T02:05:03.726Z,41.45
2023-01-13T02:08:08.506Z,38.60
2023-01-13T02:11:47.214Z,42.77
2023-01-13T02:14:49.724Z,40.20
2023-01-13T02:18:16.531Z,36.40
2023-01-13T02:21:47.024Z,40.50
2023-01-13T02:25:07.635Z,43.47
2023-01-13T02:29:00.574Z,43.67
2023-01-13T02:32:10.543Z,45.67
2023-01-13T02:35:24.785Z,47.28
2023-01-13T02:38:33.304Z,50.63
2023-01-13T02:42:14.189Z,47.50
2023-01-13T02:45:21.382Z,47.43
2023-01-13T02:48:24.664Z,44.08
2023-01-13T02:51:28.420Z,45.53
2023-01-13T02:54:31.799Z,46.38
2023-01-13T02:57:35.310Z,47.10
2023-01-13T03:00:38.181Z,35.50
2023-01-13T03:03:40.685Z,43.45
2023-01-13T03:06:46.003Z,40.20
2023-01-13T03:10:03.250Z,34.78
2023-01-13T03:13:20.920Z,39.00
2023-01-13T03:16:45.371Z,38.40
2023-01-13T03:20:06.774Z,38.17
2023-01-13T03:23:31.982Z,45.85
2023-01-13T03:26:44.209Z,36.25
2023-01-13T03:29:55.348Z,38.72
2023-01-13T03:33:13.496Z,45.53
2023-01-13T03:36:17.279Z,38.85
2023-01-13T03:39:28.061Z,43.38
2023-01-13T03:42:32.229Z,46.10
2023-01-13T03:45:36.344Z,52.33
2023-01-13T03:48:40.650Z,44.23
2023-01-13T03:51:47.774Z,44.60
2023-01-13T03:55:05.448Z,47.67
2023-01-13T03:58:28.535Z,44.40
2023-01-13T04:02:02.348Z,40.42
2023-01-13T04:05:07.206Z,48.10
2023-01-13T04:08:25.090Z,51.60
2023-01-13T04:11:35.744Z,49.85
2023-01-13T04:14:38.805Z,42.67
2023-01-13T04:17:41.327Z,52.53
2023-01-13T04:20:45.866Z,47.77
2023-01-13T04:23:51.410Z,55.92
2023-01-13T04:26:53.944Z,53.13
2023-01-13T04:29:56.489Z,45.67
2023-01-13T04:32:59.081Z,53.35
2023-01-13T04:36:01.545Z,43.10
2023-01-13T04:39:04.383Z,40.17
2023-01-13T04:42:06.888Z,49.38
2023-01-13T04:45:09.896Z,51.70
2023-01-13T04:48:12.780Z,50.40
2023-01-13T04:51:15.192Z,51.70
2023-01-13T04:54:17.668Z,41.70
2023-01-13T04:57:20.204Z,46.50
2023-01-13T05:00:23.787Z,50.38
2023-01-13T05:03:26.843Z,49.00
2023-01-13T06:23:07.912Z,47.85
2023-01-13T06:26:16.323Z,40.80
2023-01-13T06:29:18.723Z,43.50
2023-01-13T06:32:25.119Z,48.80
2023-01-13T06:35:30.270Z,37.58
2023-01-13T06:38:35.847Z,40.33
2023-01-13T06:41:57.362Z,56.72
2023-01-13T06:45:00.014Z,46.53
2023-01-13T06:48:02.457Z,48.88
2023-01-13T06:51:05.290Z,35.92
2023-01-13T06:54:07.757Z,27.90
2023-01-13T06:57:10.229Z,36.85
2023-01-13T07:00:13.965Z,38.60
2023-01-13T07:03:18.359Z,39.75
2023-01-13T07:06:21.191Z,33.60
2023-01-13T07:09:24.436Z,40.60
2023-01-13T07:12:27.103Z,37.15
2023-01-13T07:15:29.739Z,36.17
2023-01-13T07:18:33.438Z,24.73
2023-01-13T07:21:35.938Z,31.35
2023-01-13T07:24:38.658Z,31.88
2023-01-13T07:27:41.212Z,37.42
2023-01-13T07:30:45.149Z,28.90
2023-01-13T07:33:47.990Z,33.97
2023-01-13T07:36:50.525Z,21.27
2023-01-13T07:39:52.953Z,28.05
2023-01-13T07:43:13.837Z,20.33
2023-01-13T07:46:17.140Z,16.57
2023-01-13T07:49:19.870Z,24.02
2023-01-13T07:52:22.411Z,28.85
2023-01-13T07:55:25.160Z,21.95
2023-01-13T07:58:28.736Z,29.63
2023-01-13T08:01:32.100Z,33.67
2023-01-13T08:04:36.058Z,29.33
2023-01-13T08:07:40.650Z,22.98
2023-01-13T08:10:43.399Z,20.85
2023-01-13T08:13:46.229Z,21.92
2023-01-13T08:16:49.693Z,23.33
2023-01-13T08:19:52.581Z,22.17
2023-01-13T08:22:59.031Z,21.73
2023-01-13T08:26:05.758Z,20.20
2023-01-13T08:29:08.549Z,29.33
2023-01-13T08:32:11.289Z,26.47
2023-01-13T08:35:14.118Z,22.23
2023-01-13T08:38:16.743Z,26.83
2023-01-13T08:41:39.099Z,21.25
2023-01-13T08:44:41.539Z,16.30
2023-01-13T08:47:44.069Z,13.67
2023-01-13T08:50:46.974Z,31.80
2023-01-13T08:53:49.591Z,21.23
2023-01-13T08:56:52.099Z,14.82
2023-01-13T08:59:54.645Z,18.20
2023-01-13T09:02:58.904Z,17.70
2023-01-13T09:06:01.421Z,18.50
2023-01-13T09:09:04.039Z,19.50
2023-01-13T09:12:25.847Z,19.75
2023-01-13T09:15:28.384Z,19.45
2023-01-13T09:18:31.204Z,26.77
2023-01-13T09:21:33.815Z,26.20
2023-01-13T09:24:36.338Z,21.48
2023-01-13T09:27:38.931Z,30.42
2023-01-13T09:30:41.586Z,26.08
2023-01-13T09:34:02.583Z,27.23
2023-01-13T09:37:07.018Z,26.50
2023-01-13T09:40:16.044Z,31.10
2023-01-13T09:43:40.705Z,27.45
2023-01-13T09:46:51.701Z,36.90
2023-01-13T09:50:09.091Z,39.30
2023-01-13T09:53:23.009Z,33.08
2023-01-13T09:56:26.578Z,54.72
2023-01-13T09:59:36.703Z,40.15
2023-01-13T10:02:55.777Z,31.75
2023-01-13T10:06:02.232Z,28.53
2023-01-13T10:09:06.602Z,34.92
2023-01-13T10:12:35.511Z,47.00
2023-01-13T10:15:38.117Z,44.85
2023-01-13T10:18:59.547Z,33.65
2023-01-13T10:22:15.255Z,42.50
2023-01-13T10:25:27.753Z,39.85
2023-01-13T10:28:30.210Z,38.20
2023-01-13T10:31:32.796Z,36.97
2023-01-13T10:34:49.726Z,29.27
2023-01-13T10:37:57.323Z,34.43
2023-01-13T10:41:04.084Z,42.85
2023-01-13T10:44:15.742Z,17.85
2023-01-13T10:47:29.087Z,23.35
2023-01-13T10:50:35.043Z,18.60
2023-01-13T10:53:56.363Z,20.27
2023-01-13T10:57:21.598Z,12.02
2023-01-13T11:00:35.440Z,14.60
2023-01-13T11:03:41.611Z,15.50
2023-01-13T11:06:47.077Z,17.90
2023-01-13T11:10:17.038Z,19.47
2023-01-13T11:13:34.129Z,26.35
2023-01-13T11:16:40.741Z,23.65
2023-01-13T11:19:52.472Z,18.90
2023-01-13T11:22:56.632Z,17.20
2023-01-13T11:26:05.157Z,21.80
2023-01-13T11:29:15.273Z,21.13
2023-01-13T11:32:22.337Z,27.00
2023-01-13T11:35:25.287Z,20.30
2023-01-13T11:38:40.806Z,23.90
2023-01-13T11:41:44.622Z,19.00
2023-01-13T11:45:00.699Z,21.10
2023-01-13T11:48:04.308Z,21.95
2023-01-13T11:51:22.146Z,18.33
2023-01-13T11:55:03.052Z,22.25
2023-01-13T11:58:18.827Z,19.40
2023-01-13T12:01:47.459Z,15.48
2023-01-13T12:05:11.619Z,21.77
2023-01-13T12:08:32.057Z,27.30
2023-01-13T12:12:02.336Z,22.20
2023-01-13T12:15:36.071Z,20.03
2023-01-13T12:19:07.745Z,26.25
2023-01-13T12:22:17.581Z,19.98
2023-01-13T12:25:32.678Z,33.50
2023-01-13T12:28:43.700Z,48.92
2023-01-13T12:31:49.667Z,49.53
2023-01-13T12:35:00.244Z,48.97
2023-01-13T12:38:13.891Z,49.00
2023-01-13T12:42:02.485Z,32.92
2023-01-13T12:45:12.106Z,32.15
2023-01-13T12:48:54.799Z,28.77
2023-01-13T12:51:57.303Z,28.95
2023-01-13T12:55:02.851Z,29.40
2023-01-13T12:58:13.538Z,22.45
2023-01-13T13:01:17.327Z,16.95
2023-01-13T13:04:21.766Z,16.27
2023-01-13T13:07:30.094Z,13.43
2023-01-13T13:10:42.727Z,15.20
2023-01-13T13:13:48.522Z,15.10
2023-01-13T13:16:52.065Z,17.65
2023-01-13T13:19:56.427Z,17.60
2023-01-13T13:22:58.845Z,18.38
2023-01-13T13:26:37.625Z,23.15
2023-01-13T13:29:47.032Z,16.38
2023-01-13T13:33:00.916Z,18.40
2023-01-13T13:36:53.843Z,31.67
2023-01-13T13:40:14.860Z,32.60
2023-01-13T13:43:36.535Z,27.08
2023-01-13T13:46:48.560Z,31.38
2023-01-13T13:49:54.463Z,29.98
2023-01-13T13:53:05.266Z,30.10
2023-01-13T13:56:20.861Z,29.17
2023-01-13T13:59:26.291Z,33.60
2023-01-13T14:02:30.912Z,30.83
2023-01-13T14:05:37.649Z,21.98
2023-01-13T14:08:46.591Z,22.67
2023-01-13T14:12:00.893Z,33.80
2023-01-13T14:15:03.720Z,36.83
2023-01-13T14:18:14.708Z,25.30
2023-01-13T14:21:29.891Z,39.70
2023-01-13T14:24:32.753Z,20.03
2023-01-13T14:27:43.085Z,26.80
2023-01-13T14:30:49.909Z,19.48
2023-01-13T14:33:55.093Z,37.50
2023-01-13T14:36:57.627Z,45.40
2023-01-13T14:40:00.235Z,35.33
2023-01-13T14:43:04.303Z,34.92
2023-01-13T14:46:06.777Z,31.80
2023-01-13T14:49:40.026Z,33.17
2023-01-13T14:52:57.166Z,40.40
2023-01-13T14:55:59.810Z,40.80
2023-01-13T14:59:37.334Z,56.28
2023-01-13T15:02:50.283Z,65.82
2023-01-13T15:05:53.472Z,67.13
2023-01-13T15:08:56.685Z,51.00
2023-01-13T15:11:59.753Z,81.90
2023-01-13T15:15:04.177Z,74.40
2023-01-13T15:18:15.356Z,43.20
2023-01-13T15:21:18.663Z,37.83
2023-01-13T15:24:21.224Z,41.45
2023-01-13T15:27:25.993Z,43.83
2023-01-13T15:30:28.863Z,128.45
2023-01-13T15:33:31.316Z,72.32
2023-01-13T15:36:34.413Z,72.72
2023-01-13T15:39:36.948Z,65.70
2023-01-13T15:42:57.942Z,54.70
2023-01-13T15:46:20.183Z,51.38
2023-01-13T15:49:34.668Z,51.70
2023-01-13T15:52:37.181Z,63.70
2023-01-13T15:55:40.703Z,182.02
2023-01-13T15:58:43.203Z,137.70
2023-01-13T16:01:46.142Z,104.60
2023-01-13T16:04:48.649Z,63.33
2023-01-13T16:07:51.137Z,61.97
2023-01-13T16:10:55.083Z,62.40
2023-01-13T16:13:57.552Z,78.43
2023-01-13T16:17:01.455Z,82.90
2023-01-13T16:20:04.352Z,118.95
2023-01-13T16:23:08.139Z,122.60
2023-01-13T16:26:25.272Z,146.13
2023-01-13T16:29:27.706Z,106.53
2023-01-13T16:32:30.197Z,98.70
2023-01-13T16:35:32.827Z,82.45
2023-01-13T16:38:36.847Z,83.40
2023-01-13T16:41:39.398Z,83.10
2023-01-13T16:44:42.071Z,69.80
2023-01-13T16:47:44.614Z,69.65
2023-01-13T16:50:47.606Z,78.60
2023-01-13T16:53:50.705Z,70.15
2023-01-13T16:56:53.292Z,73.90
2023-01-13T16:59:55.805Z,69.27
2023-01-13T17:03:01.217Z,80.00
2023-01-13T17:06:04.120Z,90.00
2023-01-13T17:09:13.314Z,64.60
2023-01-13T17:12:15.819Z,64.88
2023-01-13T17:15:19.847Z,76.83
2023-01-13T17:18:22.304Z,103.82
2023-01-13T17:21:24.890Z,128.90
2023-01-13T17:24:30.954Z,167.98
2023-01-13T17:27:33.562Z,136.95
2023-01-13T17:30:37.138Z,121.60
2023-01-13T17:33:39.619Z,93.80
2023-01-13T17:36:43.529Z,77.85
2023-01-13T17:39:48.339Z,76.15
2023-01-13T17:42:50.942Z,61.45
2023-01-13T17:45:53.448Z,52.73
2023-01-13T17:48:56.050Z,44.65
2023-01-13T17:51:58.861Z,46.08
2023-01-13T17:55:01.320Z,38.95
2023-01-13T17:58:03.902Z,37.97
2023-01-13T18:01:11.071Z,38.63
2023-01-13T18:04:16.582Z,40.55
2023-01-13T18:07:19.115Z,50.08
2023-01-13T18:10:21.639Z,39.17
2023-01-13T18:13:24.528Z,35.90
2023-01-13T18:16:30.192Z,39.37
2023-01-13T18:19:51.873Z,31.42
2023-01-13T18:23:12.854Z,36.80
2023-01-13T18:26:37.838Z,33.15
2023-01-13T18:29:40.679Z,37.08
2023-01-13T18:32:43.148Z,33.63
2023-01-13T18:35:45.672Z,39.90
2023-01-13T18:38:51.629Z,55.67
2023-01-13T18:42:12.601Z,46.17
2023-01-13T18:45:15.265Z,43.83
2023-01-13T18:48:17.703Z,42.80
2023-01-13T18:51:20.189Z,38.80
2023-01-13T18:54:22.959Z,36.33
2023-01-13T18:57:25.482Z,31.85
2023-01-13T19:00:29.134Z,34.83
2023-01-13T19:03:31.883Z,33.63
2023-01-13T19:06:34.865Z,28.83
2023-01-13T19:09:38.345Z,34.33
2023-01-13T19:12:42.223Z,34.17
2023-01-13T19:15:44.791Z,35.72
2023-01-13T19:18:48.161Z,36.10
2023-01-13T19:21:50.719Z,38.28
2023-01-13T19:24:53.941Z,34.03
2023-01-13T19:27:56.412Z,35.38
2023-01-13T19:31:04.358Z,32.83
2023-01-13T19:34:07.378Z,39.70
2023-01-13T19:37:10.619Z,37.70
2023-01-13T19:40:13.884Z,40.78
2023-01-13T19:43:35.096Z,51.38
2023-01-13T19:46:37.627Z,34.83
2023-01-13T19:49:40.057Z,39.63
2023-01-13T19:52:42.736Z,43.25
2023-01-13T19:55:49.243Z,36.08
2023-01-13T19:58:51.724Z,31.67
2023-01-13T20:01:55.559Z,29.17
2023-01-13T20:05:00.432Z,32.03
2023-01-13T20:08:03.171Z,28.52
2023-01-13T20:11:30.991Z,31.38
2023-01-13T20:14:33.566Z,30.35
2023-01-13T20:17:37.497Z,36.30
2023-01-13T20:20:40.813Z,36.83
2023-01-13T20:23:44.325Z,31.42
2023-01-13T20:26:47.397Z,41.17
2023-01-13T20:29:50.312Z,50.30
2023-01-13T20:32:52.842Z,40.22
2023-01-13T20:35:58.814Z,35.80
2023-01-13T20:39:03.631Z,34.42
2023-01-13T20:42:25.089Z,41.90
2023-01-13T20:45:27.982Z,35.67
2023-01-13T20:48:30.687Z,41.53
2023-01-13T20:51:33.358Z,49.50
2023-01-13T20:54:36.941Z,54.90
2023-01-13T20:57:40.517Z,43.75
2023-01-13T21:00:43.486Z,36.17
2023-01-13T21:03:46.099Z,36.20
2023-01-13T21:06:49.785Z,31.50
2023-01-13T21:09:52.552Z,35.15
2023-01-13T21:13:13.428Z,37.30
2023-01-13T21:16:16.235Z,37.10
2023-01-13T21:19:19.082Z,36.67
2023-01-13T21:22:21.969Z,33.83
2023-01-13T21:25:24.789Z,34.60
2023-01-13T21:28:27.334Z,37.72
2023-01-13T21:31:29.949Z,32.30
2023-01-13T21:34:35.909Z,32.85
2023-01-13T21:37:39.999Z,32.53
2023-01-13T21:40:43.320Z,30.35
2023-01-13T21:44:04.113Z,28.77
2023-01-13T21:47:35.875Z,32.72
2023-01-13T21:50:39.796Z,35.13
2023-01-13T21:53:42.249Z,47.70
2023-01-13T21:56:44.681Z,46.35
2023-01-13T21:59:47.116Z,40.92
2023-01-13T22:02:49.906Z,36.10
2023-01-13T22:05:55.888Z,48.45
2023-01-13T22:09:01.399Z,41.93
2023-01-13T22:12:04.321Z,40.95
2023-01-13T22:15:07.795Z,40.08
2023-01-13T22:18:10.304Z,38.70
2023-01-13T22:21:13.075Z,31.05
2023-01-13T22:24:15.669Z,35.00
2023-01-13T22:27:24.066Z,35.53
2023-01-13T22:30:31.924Z,31.05
2023-01-13T22:33:34.437Z,33.97
2023-01-13T22:36:36.820Z,33.80
2023-01-13T22:39:39.676Z,33.60
2023-01-13T22:42:43.023Z,31.65
2023-01-13T22:45:45.568Z,33.83
2023-01-13T22:48:48.423Z,33.17
2023-01-13T22:51:50.898Z,32.65
2023-01-13T22:54:53.324Z,31.10
2023-01-13T22:57:55.820Z,36.85
2023-01-13T23:01:12.687Z,37.88
2023-01-13T23:04:15.234Z,37.83
2023-01-13T23:07:17.696Z,37.22
2023-01-13T23:10:20.710Z,32.77
2023-01-13T23:13:23.367Z,34.53
2023-01-13T23:16:26.509Z,32.97
2023-01-13T23:19:29.122Z,38.97
2023-01-13T23:22:31.672Z,38.25
2023-01-13T23:25:34.120Z,35.80
2023-01-13T23:28:37.126Z,35.15
2023-01-13T23:31:40.173Z,36.60
2023-01-13T23:34:42.791Z,36.05
2023-01-13T23:37:45.340Z,36.83
2023-01-13T23:40:47.926Z,41.67
2023-01-13T23:43:52.069Z,40.80
2023-01-13T23:46:54.563Z,41.03
2023-01-13T23:49:57.027Z,39.13
2023-01-13T23:52:59.656Z,40.63
2023-01-13T23:56:03.807Z,40.57
2023-01-13T23:59:06.766Z,49.65
